Time;durP1;ratioP1;P1;durP2;ratioP2;P2;SDS_P1;SDS_P2;PMS_P1;PMS_P2;Temp;Humidity;BMP_temperature;BMP_pressure;BME280_temperature;BME280_humidity;BME280_pressure;Samples;Min_cycle;Max_cycle;Signal;HPM_P1;HPM_P2
2021/08/25 00:02:03;;;;;;;5.30;4.80;;;;;;;22.83;91.38;98098.63;4990364;28;20229;-65
2021/08/25 00:04:30;;;;;;;5.20;4.80;;;;;;;21.93;91.23;97950.38;5007134;28;20204;-65
2021/08/25 00:06:57;;;;;;;6.97;5.10;;;;;;;22.96;91.39;98131.53;4976866;28;20282;-64
2021/08/25 00:09:23;;;;;;;5.93;5.33;;;;;;;22.94;91.79;98125.47;4975389;28;20232;-65
2021/08/25 00:11:50;;;;;;;5.47;4.97;;;;;;;22.93;91.65;98131.44;4974188;28;20259;-65
2021/08/25 00:14:16;;;;;;;5.73;5.07;;;;;;;22.92;91.68;98119.44;4976142;28;20231;-64
2021/08/25 00:16:43;;;;;;;6.27;5.70;;;;;;;22.24;91.43;98004.38;4975772;28;20246;-65
2021/08/25 00:19:09;;;;;;;5.57;5.07;;;;;;;22.73;91.72;98082.06;4975407;28;20299;-65
2021/08/25 00:21:36;;;;;;;5.77;5.27;;;;;;;22.90;91.84;98110.81;5006229;28;20288;-67
2021/08/25 00:24:03;;;;;;;5.50;5.00;;;;;;;22.91;91.79;98115.13;4969881;28;20216;-66
2021/08/25 00:26:29;;;;;;;5.83;5.23;;;;;;;22.91;91.91;98107.44;4966074;28;20295;-69
2021/08/25 00:28:56;;;;;;;5.60;5.13;;;;;;;22.91;91.76;98104.88;4961457;28;20290;-66
2021/08/25 00:31:22;;;;;;;6.00;5.40;;;;;;;22.88;91.72;98097.94;4975913;28;20298;-67
2021/08/25 00:33:49;;;;;;;5.80;5.30;;;;;;;22.52;91.65;98039.47;5021198;23;20230;-68
2021/08/25 00:36:16;;;;;;;6.13;5.53;;;;;;;22.90;91.72;98098.88;4997028;28;20712;-68
2021/08/25 00:38:42;;;;;;;6.17;5.50;;;;;;;22.93;91.64;98100.66;4972932;28;20239;-68
2021/08/25 00:41:09;;;;;;;7.23;5.23;;;;;;;22.85;91.71;98087.59;4974128;28;20203;-68
2021/08/25 00:43:35;;;;;;;5.60;5.10;;;;;;;22.93;91.52;98096.44;4970021;28;20317;-68
2021/08/25 00:46:02;;;;;;;6.00;5.40;;;;;;;22.84;91.41;98074.75;4953257;28;20247;-68
2021/08/25 00:48:29;;;;;;;6.33;5.73;;;;;;;22.93;91.52;98087.84;4947694;28;20573;-68
2021/08/25 00:50:55;;;;;;;6.10;5.53;;;;;;;22.57;91.45;98026.03;4954112;28;20642;-68
2021/08/25 00:53:24;;;;;;;6.00;5.50;;;;;;;22.93;91.28;98085.28;4940272;29;20633;-68
2021/08/25 00:56:02;;;;;;;7.10;5.60;;;;;;;22.78;91.20;98056.59;4961886;28;20212;-69
2021/08/25 00:58:29;;;;;;;5.43;4.93;;;;;;;22.78;91.29;98059.16;4956029;28;20247;-68
2021/08/25 01:01:03;;;;;;;5.90;5.40;;;;;;;22.79;91.29;98054.09;4981314;28;20200;-67
2021/08/25 01:03:48;;;;;;;5.53;5.03;;;;;;;22.70;91.37;98033.28;4968649;28;20227;-68
2021/08/25 01:06:16;;;;;;;6.00;5.40;;;;;;;22.93;91.32;98068.22;4964186;28;20314;-68
2021/08/25 01:08:43;;;;;;;5.80;5.30;;;;;;;22.93;91.18;98063.09;4960325;28;20236;-68
2021/08/25 01:11:10;;;;;;;5.90;5.40;;;;;;;22.56;90.98;97995.25;4954835;28;20205;-68
2021/08/25 01:13:37;;;;;;;6.10;5.60;;;;;;;22.84;91.21;98044.88;4940256;29;20251;-68
2021/08/25 01:16:04;;;;;;;5.53;5.03;;;;;;;22.70;91.12;98022.16;4956052;28;20296;-68
2021/08/25 01:18:31;;;;;;;6.03;5.20;;;;;;;22.77;91.09;98037.78;4953688;28;20645;-68
2021/08/25 01:20:59;;;;;;;6.17;5.20;;;;;;;22.77;91.07;98052.31;4953733;28;20294;-68
2021/08/25 01:23:27;;;;;;;6.40;5.00;;;;;;;22.67;91.13;98020.38;4957368;28;20232;-68
2021/08/25 01:25:53;;;;;;;5.70;5.20;;;;;;;22.93;91.07;98059.66;4967502;28;20235;-68
2021/08/25 01:28:21;;;;;;;6.10;5.07;;;;;;;22.92;91.12;98061.34;4957356;28;20235;-68
2021/08/25 01:30:49;;;;;;;5.73;5.23;;;;;;;22.93;91.12;98067.34;4941613;28;20200;-68
2021/08/25 01:33:22;;;;;;;6.10;5.60;;;;;;;22.93;91.16;98059.66;4942725;29;20236;-68
2021/08/25 01:35:49;;;;;;;5.20;4.70;;;;;;;22.67;91.15;98025.50;4956177;28;20230;-68
2021/08/25 01:38:37;;;;;;;5.90;5.40;;;;;;;22.93;90.99;98062.22;4967462;28;20701;-68
2021/08/25 01:41:04;;;;;;;5.73;5.23;;;;;;;22.91;90.89;98059.59;4957455;28;20243;-68
2021/08/25 01:43:32;;;;;;;5.33;4.93;;;;;;;22.27;90.85;97949.84;4953294;28;20616;-68
2021/08/25 01:45:58;;;;;;;5.57;5.07;;;;;;;22.93;90.82;98057.09;4952606;28;20234;-68
2021/08/25 01:48:25;;;;;;;5.50;5.10;;;;;;;22.51;90.62;97983.97;4954259;28;20688;-68
2021/08/25 01:50:51;;;;;;;5.80;5.30;;;;;;;22.90;91.00;98057.00;4924158;29;20295;-67
2021/08/25 01:53:18;;;;;;;5.90;5.40;;;;;;;22.73;90.71;98025.69;4957571;28;20248;-68
2021/08/25 01:55:45;;;;;;;5.80;5.20;;;;;;;22.82;90.65;98048.19;4955165;28;20243;-68
2021/08/25 01:58:11;;;;;;;6.17;5.60;;;;;;;22.88;90.83;98056.06;4955472;28;20248;-68
2021/08/25 02:00:38;;;;;;;6.33;5.60;;;;;;;22.86;90.72;98056.00;4984697;28;20204;-68
2021/08/25 02:03:05;;;;;;;6.33;5.73;;;;;;;22.62;90.49;98018.50;4953993;28;20706;-68
2021/08/25 02:05:31;;;;;;;6.10;5.50;;;;;;;22.87;91.12;98062.03;4964258;28;20209;-67
2021/08/25 02:07:58;;;;;;;6.10;5.50;;;;;;;22.75;90.74;98036.00;4959104;28;20255;-67
2021/08/25 02:10:25;;;;;;;5.63;5.03;;;;;;;22.87;90.85;98044.97;4984525;28;20634;-68
2021/08/25 02:12:51;;;;;;;6.30;5.80;;;;;;;22.62;91.26;98003.13;4984596;28;20788;-68
2021/08/25 02:15:18;;;;;;;5.90;5.33;;;;;;;22.08;90.77;97917.63;4986945;28;20987;-68
2021/08/25 02:17:45;;;;;;;5.70;5.20;;;;;;;22.88;90.88;98036.44;4957064;28;20286;-68
2021/08/25 02:20:11;;;;;;;5.57;5.07;;;;;;;22.88;90.88;98041.56;4954107;28;20299;-67
2021/08/25 02:22:38;;;;;;;5.77;5.20;;;;;;;22.52;90.73;97973.75;4952468;28;20534;-68
2021/08/25 02:25:05;;;;;;;6.17;5.57;;;;;;;22.87;90.79;98037.28;4936914;28;20295;-67
2021/08/25 02:27:31;;;;;;;5.93;5.43;;;;;;;22.81;90.66;98028.50;4958427;28;20208;-68
2021/08/25 02:29:58;;;;;;;5.20;4.80;;;;;;;22.89;90.63;98038.16;4954340;28;20235;-68
2021/08/25 02:32:25;;;;;;;5.53;5.03;;;;;;;22.41;90.55;97948.59;4949651;28;20259;-68
2021/08/25 02:34:52;;;;;;;5.90;5.30;;;;;;;22.80;90.64;98011.41;4983507;28;20201;-68
2021/08/25 02:37:19;;;;;;;6.00;5.50;;;;;;;22.74;90.55;98009.50;4926221;28;20244;-68
2021/08/25 02:39:46;;;;;;;6.60;5.90;;;;;;;22.90;90.53;98036.50;4983677;28;20247;-68
2021/08/25 02:42:12;;;;;;;5.23;4.83;;;;;;;22.91;90.32;98033.09;4953675;28;20258;-67
2021/08/25 02:44:39;;;;;;;5.70;5.20;;;;;;;22.43;90.36;97947.81;4983249;28;20304;-68
2021/08/25 02:47:05;;;;;;;7.07;5.70;;;;;;;22.71;90.41;97988.91;4980229;28;20239;-68
2021/08/25 02:49:32;;;;;;;5.50;5.00;;;;;;;22.63;90.59;97981.78;4952938;28;20618;-68
2021/08/25 02:51:58;;;;;;;6.00;5.47;;;;;;;22.90;90.73;98031.38;4951187;28;20287;-68
2021/08/25 02:54:25;;;;;;;5.43;4.93;;;;;;;22.84;90.53;98014.09;4959769;28;20660;-68
2021/08/25 02:56:52;;;;;;;5.77;4.80;;;;;;;22.54;90.23;97961.00;4954555;28;20254;-68
2021/08/25 02:59:18;;;;;;;6.20;5.60;;;;;;;22.85;90.20;98012.41;4953018;28;20239;-68
2021/08/25 03:01:45;;;;;;;5.70;5.20;;;;;;;22.85;90.41;98007.28;4952759;28;20255;-67
2021/08/25 03:04:12;;;;;;;7.67;5.70;;;;;;;22.42;90.33;97945.22;4955647;28;20252;-68
2021/08/25 03:06:38;;;;;;;5.83;5.33;;;;;;;22.04;90.13;97881.63;4952832;28;20232;-68
2021/08/25 03:09:05;;;;;;;5.60;5.10;;;;;;;22.77;90.58;97995.94;4951669;28;20645;-68
2021/08/25 03:11:33;;;;;;;5.33;4.87;;;;;;;22.89;90.10;98016.81;4951209;28;20539;-68
2021/08/25 03:14:00;;;;;;;6.03;5.53;;;;;;;22.90;89.52;98010.84;4952171;28;20220;-68
2021/08/25 03:16:26;;;;;;;5.97;5.40;;;;;;;22.91;90.19;98012.59;4952921;28;20235;-68
2021/08/25 03:18:53;;;;;;;5.63;5.13;;;;;;;22.82;90.18;97994.34;4953911;28;20300;-68
2021/08/25 03:21:20;;;;;;;5.60;5.10;;;;;;;22.01;90.03;97858.50;4952963;28;20287;-68
2021/08/25 03:23:46;;;;;;;5.80;5.30;;;;;;;22.91;90.09;98003.22;4952856;28;20275;-68
2021/08/25 03:26:13;;;;;;;6.13;5.53;;;;;;;22.75;90.08;97969.38;4952920;28;20311;-67
2021/08/25 03:28:40;;;;;;;5.97;5.40;;;;;;;22.83;89.97;97985.88;4956271;28;20667;-68
2021/08/25 03:31:06;;;;;;;5.73;5.23;;;;;;;22.80;89.85;97983.22;4983656;28;20235;-68
2021/08/25 03:33:33;;;;;;;5.33;4.83;;;;;;;22.83;89.97;97985.88;4952090;28;20291;-69
2021/08/25 03:35:59;;;;;;;5.73;5.20;;;;;;;22.66;90.06;97956.28;4953900;28;20228;-68
2021/08/25 03:38:26;;;;;;;5.67;5.10;;;;;;;22.88;89.92;97995.44;4944672;28;20201;-68
2021/08/25 03:40:52;;;;;;;5.83;5.30;;;;;;;22.87;89.71;97988.56;4956259;28;20308;-67
2021/08/25 03:43:19;;;;;;;6.10;5.47;;;;;;;22.68;89.82;97954.63;4959457;28;20322;-68
2021/08/25 03:45:46;;;;;;;6.30;5.57;;;;;;;22.84;89.64;97987.59;4952291;28;20309;-68
2021/08/25 03:48:12;;;;;;;5.50;4.87;;;;;;;22.42;89.25;97927.28;4955732;28;20231;-68
2021/08/25 03:50:39;;;;;;;6.37;5.73;;;;;;;22.84;89.56;97998.72;4966762;28;20243;-68
2021/08/25 03:53:05;;;;;;;5.80;5.30;;;;;;;22.84;90.45;97992.72;4951542;28;20256;-68
2021/08/25 03:55:32;;;;;;;6.30;5.80;;;;;;;22.68;89.59;97958.03;4952917;28;20228;-68
2021/08/25 03:57:58;;;;;;;6.30;5.10;;;;;;;22.16;90.09;97872.66;4965338;28;20741;-68
2021/08/25 04:00:25;;;;;;;5.83;5.27;;;;;;;22.31;89.76;97892.75;4952339;28;20676;-68
2021/08/25 04:02:52;;;;;;;5.97;5.40;;;;;;;22.84;90.20;97978.22;4952687;28;20224;-68
2021/08/25 04:05:18;;;;;;;6.60;5.30;;;;;;;22.86;89.87;97980.84;4950954;28;20224;-68
2021/08/25 04:07:45;;;;;;;7.47;5.03;;;;;;;22.80;90.13;97971.25;4952125;28;20309;-68
2021/08/25 04:10:12;;;;;;;6.53;5.20;;;;;;;22.82;89.91;97973.84;4952232;28;20207;-68
2021/08/25 04:12:39;;;;;;;6.10;5.50;;;;;;;22.03;89.80;97839.84;4951272;28;20315;-67
2021/08/25 04:15:06;;;;;;;6.67;5.30;;;;;;;22.87;89.87;97977.44;4951978;28;20296;-68
2021/08/25 04:17:33;;;;;;;8.23;5.07;;;;;;;22.88;89.87;97981.72;4974823;28;20236;-68
2021/08/25 04:20:00;;;;;;;6.07;5.43;;;;;;;22.88;89.94;97989.44;4981731;28;20201;-68
2021/08/25 04:22:27;;;;;;;5.73;5.13;;;;;;;22.88;89.84;97986.84;4951056;28;20310;-68
2021/08/25 04:24:53;;;;;;;7.67;5.33;;;;;;;22.79;89.42;97971.19;4952385;28;20649;-68
2021/08/25 04:27:22;;;;;;;5.97;5.03;;;;;;;22.05;89.61;97845.84;4952792;28;20657;-68
2021/08/25 04:29:49;;;;;;;11.53;5.30;;;;;;;22.80;89.57;97978.94;4950278;28;20688;-68
2021/08/25 04:32:16;;;;;;;5.60;5.10;;;;;;;22.73;89.59;97978.69;4950575;28;20319;-68
2021/08/25 04:34:42;;;;;;;5.77;5.27;;;;;;;22.51;88.85;97928.50;4951369;28;20569;-68
2021/08/25 04:37:09;;;;;;;5.63;4.97;;;;;;;22.88;89.32;97989.44;4950065;28;20661;-68
2021/08/25 04:39:35;;;;;;;6.10;5.10;;;;;;;22.89;89.13;97994.59;4979128;28;20629;-67
2021/08/25 04:42:02;;;;;;;7.73;5.20;;;;;;;22.85;89.53;97986.75;4981448;28;20242;-67
2021/08/25 04:44:29;;;;;;;6.40;4.83;;;;;;;22.65;89.74;97950.25;4952274;28;20685;-67
2021/08/25 04:46:55;;;;;;;5.60;5.10;;;;;;;22.81;89.52;97978.13;4966305;28;20291;-68
2021/08/25 04:49:22;;;;;;;6.47;4.90;;;;;;;22.89;89.55;98001.44;4951308;28;20239;-68
2021/08/25 04:51:48;;;;;;;5.47;4.97;;;;;;;22.80;89.73;97980.66;4950346;28;20648;-67
2021/08/25 04:54:15;;;;;;;5.90;5.37;;;;;;;22.82;89.54;97978.97;4953432;28;20657;-68
2021/08/25 04:56:42;;;;;;;5.53;5.00;;;;;;;22.72;89.72;97972.72;4980069;28;20214;-68
2021/08/25 04:59:08;;;;;;;8.80;5.30;;;;;;;22.88;84.55;97989.44;4950228;28;20295;-68
2021/08/25 05:01:35;;;;;;;9.53;6.23;;;;;;;22.15;82.98;97875.19;4951517;28;20256;-68
2021/08/25 05:04:02;;;;;;;8.50;6.47;;;;;;;22.77;80.20;97976.28;4949971;28;20232;-68
2021/08/25 05:06:28;;;;;;;7.83;6.10;;;;;;;22.08;78.42;97873.25;4950331;28;20196;-69
2021/08/25 05:08:55;;;;;;;7.33;6.43;;;;;;;22.65;76.87;97969.91;4949646;28;20207;-68
2021/08/25 05:11:21;;;;;;;9.53;6.50;;;;;;;22.74;75.82;97981.31;4956827;28;20236;-68
2021/08/25 05:13:49;;;;;;;7.23;6.53;;;;;;;22.80;74.81;97998.59;4950159;28;20607;-68
2021/08/25 05:16:15;;;;;;;9.20;7.10;;;;;;;22.71;74.52;97980.34;4950531;28;20202;-68
2021/08/25 05:18:42;;;;;;;7.23;6.53;;;;;;;22.67;74.72;97978.50;4952071;28;20669;-68
2021/08/25 05:21:09;;;;;;;7.53;6.70;;;;;;;22.59;75.95;97962.03;4938684;29;20231;-67
2021/08/25 05:23:36;;;;;;;7.07;6.40;;;;;;;22.78;77.13;97997.66;4981484;28;20249;-68
2021/08/25 05:26:03;;;;;;;7.83;6.30;;;;;;;22.78;78.22;98000.22;4965319;28;20263;-68
2021/08/25 05:28:30;;;;;;;7.70;6.60;;;;;;;22.71;79.29;97982.91;4952438;28;20295;-67
2021/08/25 05:30:56;;;;;;;9.07;6.77;;;;;;;22.78;80.18;98003.66;4964867;28;20287;-68
2021/08/25 05:33:23;;;;;;;7.63;5.67;;;;;;;22.53;80.95;97955.00;4950275;28;20263;-68
2021/08/25 05:35:49;;;;;;;7.17;5.93;;;;;;;22.75;81.65;97988.19;4951510;28;20675;-68
2021/08/25 05:38:16;;;;;;;7.10;6.40;;;;;;;21.94;81.95;97847.22;4957682;28;20303;-68
2021/08/25 05:40:42;;;;;;;6.80;6.00;;;;;;;22.80;82.06;97993.47;4957006;28;20292;-69
2021/08/25 05:43:09;;;;;;;7.07;6.37;;;;;;;22.80;82.88;97986.63;4956686;28;20311;-68
2021/08/25 05:45:35;;;;;;;7.20;6.43;;;;;;;22.76;83.50;97984.78;4959956;28;20259;-68
2021/08/25 05:48:02;;;;;;;6.03;5.43;;;;;;;22.68;83.49;97968.28;4980641;28;20580;-68
2021/08/25 05:50:29;;;;;;;7.17;5.87;;;;;;;22.76;83.92;97982.22;4957222;28;20642;-69
2021/08/25 05:52:55;;;;;;;6.40;5.80;;;;;;;22.82;84.25;97990.13;4954004;28;20220;-68
2021/08/25 05:55:22;;;;;;;8.37;5.87;;;;;;;22.82;84.42;97991.78;4954680;28;20227;-68
2021/08/25 05:57:49;;;;;;;6.73;6.00;;;;;;;22.83;84.21;97991.00;4953962;28;20204;-68
2021/08/25 06:00:19;;;;;;;6.93;6.20;;;;;;;22.83;84.74;97983.31;4955068;28;20646;-67
2021/08/25 06:02:49;;;;;;;7.17;6.10;;;;;;;22.83;84.99;97986.72;4953907;28;20728;-68
2021/08/25 06:05:17;;;;;;;6.20;5.50;;;;;;;22.79;85.07;97977.22;4969438;28;20658;-68
2021/08/25 06:07:43;;;;;;;8.77;5.70;;;;;;;22.85;85.22;97984.19;4953459;28;20201;-68
2021/08/25 06:10:10;;;;;;;6.57;5.40;;;;;;;22.84;85.33;97983.34;4957623;28;20239;-68
2021/08/25 06:12:37;;;;;;;6.60;5.57;;;;;;;22.75;85.52;97969.38;4954432;28;20227;-66
2021/08/25 06:15:04;;;;;;;7.90;5.90;;;;;;;22.83;85.71;97975.63;4952541;28;20251;-68
2021/08/25 06:17:30;;;;;;;5.90;5.40;;;;;;;22.82;85.85;97976.41;4967952;28;20231;-67
2021/08/25 06:19:57;;;;;;;6.37;5.77;;;;;;;22.68;86.21;97950.38;4953897;28;20293;-68
2021/08/25 06:22:23;;;;;;;6.93;5.90;;;;;;;22.82;86.36;97974.75;4956222;28;20267;-70
2021/08/25 06:24:50;;;;;;;7.73;5.80;;;;;;;22.84;86.50;97977.34;4954409;28;20646;-68
2021/08/25 06:27:16;;;;;;;6.87;5.10;;;;;;;22.79;86.37;97969.50;4952481;28;20577;-68
2021/08/25 06:29:43;;;;;;;6.10;5.50;;;;;;;22.81;86.96;97975.56;4953060;28;20204;-68
2021/08/25 06:32:10;;;;;;;6.03;5.47;;;;;;;22.84;86.72;97974.78;4952673;28;20351;-69
2021/08/25 06:34:36;;;;;;;6.57;5.87;;;;;;;22.85;86.75;97989.31;4986312;23;20282;-65
2021/08/25 06:37:03;;;;;;;6.17;5.40;;;;;;;22.85;86.75;97981.63;4947419;28;20357;-63
2021/08/25 06:39:29;;;;;;;6.30;5.70;;;;;;;22.86;86.87;97991.09;4953473;28;20732;-64
2021/08/25 06:41:56;;;;;;;6.00;5.40;;;;;;;22.86;86.56;97986.81;4967664;28;20324;-64
2021/08/25 06:44:23;;;;;;;5.80;5.20;;;;;;;22.86;87.04;97991.94;4969505;28;20660;-65
2021/08/25 06:46:49;;;;;;;7.83;6.23;;;;;;;22.87;86.99;97987.69;4966417;28;20322;-66
2021/08/25 06:49:16;;;;;;;7.40;5.77;;;;;;;22.87;86.99;97991.13;4967447;28;20232;-66
2021/08/25 06:51:43;;;;;;;5.87;5.27;;;;;;;22.88;87.12;97989.44;4970966;28;20477;-65
2021/08/25 06:54:10;;;;;;;5.90;5.33;;;;;;;22.88;87.26;97992.88;4970190;28;20258;-65
2021/08/25 06:56:36;;;;;;;6.20;5.60;;;;;;;22.88;87.09;97991.97;4967589;28;20242;-65
2021/08/25 06:59:03;;;;;;;6.03;5.10;;;;;;;22.87;87.27;97988.56;4964348;28;20648;-66
2021/08/25 07:01:30;;;;;;;5.70;5.20;;;;;;;22.88;87.34;97995.44;4966552;28;20200;-66
2021/08/25 07:03:57;;;;;;;6.20;4.90;;;;;;;22.87;87.36;97997.94;4965867;28;20227;-66
2021/08/25 07:06:24;;;;;;;11.60;5.90;;;;;;;22.87;86.53;97993.69;4968467;28;20242;-65
2021/08/25 07:08:50;;;;;;;9.47;5.63;;;;;;;22.87;85.26;97993.69;4965710;28;20267;-65
2021/08/25 07:11:17;;;;;;;8.73;5.83;;;;;;;22.87;84.07;97992.81;4966393;28;20232;-65
2021/08/25 07:13:43;;;;;;;6.13;5.53;;;;;;;22.86;82.56;97989.38;4970856;28;20306;-65
2021/08/25 07:16:10;;;;;;;17.83;6.30;;;;;;;22.86;80.57;97983.41;4966436;28;20228;-65
2021/08/25 07:18:37;;;;;;;9.63;5.67;;;;;;;22.86;79.82;97978.28;4966709;28;20282;-65
2021/08/25 07:21:04;;;;;;;6.33;5.73;;;;;;;22.85;80.62;97984.19;4970252;28;20290;-65
2021/08/25 07:23:31;;;;;;;8.47;5.70;;;;;;;22.85;81.50;97981.63;4965875;28;20736;-66
2021/08/25 07:25:57;;;;;;;6.93;5.90;;;;;;;22.86;81.41;97980.84;4963490;28;20308;-65
2021/08/25 07:28:24;;;;;;;6.23;5.63;;;;;;;22.86;80.50;97978.28;4963252;28;20235;-65
2021/08/25 07:30:50;;;;;;;14.33;5.47;;;;;;;22.86;79.73;97975.72;4962272;28;20729;-65
2021/08/25 07:33:19;;;;;;;7.60;5.90;;;;;;;22.86;79.16;97973.16;4967586;28;20253;-66
2021/08/25 07:35:48;;;;;;;8.60;5.83;;;;;;;22.86;79.63;97970.59;4963158;28;20296;-66
2021/08/25 07:38:15;;;;;;;8.53;5.53;;;;;;;22.86;80.47;97965.47;4971797;28;20235;-65
2021/08/25 07:40:43;;;;;;;7.93;5.53;;;;;;;22.87;81.08;97972.31;4971995;28;20195;-65
2021/08/25 07:43:09;;;;;;;9.47;5.40;;;;;;;22.87;81.96;97972.31;4971077;28;20311;-66
2021/08/25 07:45:37;;;;;;;7.77;5.47;;;;;;;22.87;81.77;97968.06;4970537;28;20232;-65
2021/08/25 07:48:05;;;;;;;6.93;5.37;;;;;;;22.88;82.35;97971.47;4970895;28;20203;-65
2021/08/25 07:50:32;;;;;;;5.80;5.20;;;;;;;22.86;82.80;97979.13;4971953;28;20203;-65
2021/08/25 07:52:59;;;;;;;5.67;5.07;;;;;;;22.88;83.32;97971.47;4970624;28;20663;-66
2021/08/25 07:55:26;;;;;;;6.13;5.37;;;;;;;22.88;83.26;97977.50;4971634;28;20239;-64
2021/08/25 07:57:53;;;;;;;9.37;5.40;;;;;;;22.87;83.45;97968.06;4970544;28;20210;-66
2021/08/25 08:00:19;;;;;;;6.27;4.97;;;;;;;22.88;83.53;97968.91;4971320;28;20826;-64
2021/08/25 08:02:46;;;;;;;9.73;5.70;;;;;;;22.89;83.75;97963.00;4971375;28;20295;-66
2021/08/25 08:05:13;;;;;;;7.43;5.73;;;;;;;22.89;83.75;97973.25;4971402;28;20216;-65
2021/08/25 08:07:39;;;;;;;7.83;5.13;;;;;;;22.89;83.68;97975.81;4971204;28;20231;-65
2021/08/25 08:10:06;;;;;;;6.83;4.87;;;;;;;22.88;83.99;97968.91;4971059;28;20705;-63
2021/08/25 08:12:33;;;;;;;6.33;5.10;;;;;;;22.89;83.95;97966.41;4971530;28;20250;-65
2021/08/25 08:15:00;;;;;;;7.43;5.17;;;;;;;22.90;84.26;97974.97;4970965;28;20192;-65
2021/08/25 08:17:26;;;;;;;7.60;5.20;;;;;;;22.85;84.19;97963.69;4971155;28;20876;-66
2021/08/25 08:19:56;;;;;;;5.30;4.80;;;;;;;22.89;84.19;97966.41;4969620;28;20239;-65
2021/08/25 08:22:22;;;;;;;7.77;5.03;;;;;;;22.85;84.25;97964.56;4971198;28;20669;-66
2021/08/25 08:24:49;;;;;;;5.37;4.87;;;;;;;22.91;84.51;97971.56;4969959;28;20335;-65
2021/08/25 08:27:15;;;;;;;6.03;5.03;;;;;;;22.91;84.49;97963.88;4970846;28;20299;-66
2021/08/25 08:29:42;;;;;;;7.17;5.00;;;;;;;22.92;84.47;97965.66;4971032;28;20200;-65
2021/08/25 08:32:09;;;;;;;5.17;4.67;;;;;;;22.91;84.47;97966.44;4970883;28;20550;-65
2021/08/25 08:34:36;;;;;;;6.53;4.80;;;;;;;22.92;84.56;97965.66;4969773;28;20318;-65
2021/08/25 08:37:03;;;;;;;5.53;4.60;;;;;;;22.91;84.70;97962.19;4970230;28;20288;-65
2021/08/25 08:39:30;;;;;;;6.87;4.73;;;;;;;22.92;84.62;97968.22;4971440;28;20231;-65
2021/08/25 08:41:56;;;;;;;4.93;4.43;;;;;;;22.91;85.05;97962.19;4970120;28;20294;-65
2021/08/25 08:44:23;;;;;;;5.97;4.50;;;;;;;22.92;84.74;97961.38;4971049;28;20709;-65
2021/08/25 08:46:50;;;;;;;5.03;4.37;;;;;;;22.93;84.81;97964.81;4956162;28;20196;-64
2021/08/25 08:49:17;;;;;;;4.80;4.40;;;;;;;22.93;84.88;97964.81;4970705;28;20230;-65
2021/08/25 08:51:44;;;;;;;5.33;4.67;;;;;;;22.93;84.89;97957.13;4969686;28;20242;-66
2021/08/25 08:54:11;;;;;;;6.67;4.90;;;;;;;22.93;84.93;97954.56;4969389;28;20223;-66
2021/08/25 08:56:37;;;;;;;5.67;5.10;;;;;;;22.94;84.91;97956.28;4969793;28;20618;-65
2021/08/25 08:59:04;;;;;;;8.43;4.60;;;;;;;22.92;84.97;97956.25;4970458;28;20262;-66
2021/08/25 09:01:30;;;;;;;5.33;4.33;;;;;;;22.94;85.03;97956.28;4970533;28;20259;-65
2021/08/25 09:03:58;;;;;;;5.00;4.50;;;;;;;22.94;85.03;97959.75;4969419;28;20230;-65
2021/08/25 09:06:44;;;;;;;5.90;4.53;;;;;;;22.95;85.13;97955.50;4969446;28;20227;-65
2021/08/25 09:09:11;;;;;;;5.57;4.53;;;;;;;22.95;85.11;97960.63;4970347;28;20749;-65
2021/08/25 09:11:48;;;;;;;5.07;4.37;;;;;;;22.94;85.21;97946.03;4972395;28;20693;-65
2021/08/25 09:14:14;;;;;;;5.10;4.13;;;;;;;22.94;85.42;97948.59;4968602;28;20671;-65
2021/08/25 09:16:41;;;;;;;5.07;4.57;;;;;;;22.93;85.33;97950.31;4974117;28;20210;-65
2021/08/25 09:19:09;;;;;;;5.07;4.40;;;;;;;22.95;85.24;97947.81;4967564;28;20294;-65
2021/08/25 09:21:40;;;;;;;5.13;4.33;;;;;;;22.94;85.17;97944.34;4973937;28;20697;-65
2021/08/25 09:24:07;;;;;;;5.07;4.40;;;;;;;22.11;85.16;97794.84;4965328;28;20278;-66
2021/08/25 09:26:35;;;;;;;4.80;4.37;;;;;;;22.95;85.10;97934.97;4973733;28;20322;-65
2021/08/25 09:29:17;;;;;;;5.30;4.60;;;;;;;22.95;85.27;97927.28;4973010;28;20285;-65
2021/08/25 09:31:45;;;;;;;4.80;4.30;;;;;;;22.94;85.17;97935.78;4972773;28;20264;-65
2021/08/25 09:34:31;;;;;;;5.00;4.50;;;;;;;22.94;85.30;97933.22;4972988;28;20274;-65
2021/08/25 09:37:16;;;;;;;5.43;4.50;;;;;;;22.94;85.34;97926.41;4970588;28;20622;-65
2021/08/25 09:39:50;;;;;;;5.10;4.60;;;;;;;22.94;85.34;97933.22;4968940;28;20303;-65
2021/08/25 09:42:44;;;;;;;4.80;4.10;;;;;;;22.94;85.39;97930.66;4968578;28;20218;-65
2021/08/25 09:45:15;;;;;;;4.63;4.23;;;;;;;22.93;85.38;97924.69;4964584;28;20278;-66
2021/08/25 09:47:51;;;;;;;4.90;4.03;;;;;;;22.94;85.51;97923.84;4970160;28;20208;-65
2021/08/25 09:50:22;;;;;;;4.50;4.10;;;;;;;22.94;85.43;97926.41;4971226;28;20313;-65
2021/08/25 09:52:49;;;;;;;4.73;4.23;;;;;;;22.94;85.45;97918.72;4970502;28;20298;-65
2021/08/25 09:55:28;;;;;;;4.60;4.20;;;;;;;22.94;85.42;97928.97;4970783;28;20212;-64
2021/08/25 09:57:55;;;;;;;5.63;4.60;;;;;;;22.94;85.22;97928.09;4970301;28;20684;-66
2021/08/25 10:00:21;;;;;;;4.53;4.13;;;;;;;22.95;85.44;97929.84;4969143;28;20733;-65
2021/08/25 10:02:48;;;;;;;4.60;4.20;;;;;;;22.94;85.60;97917.84;4970621;28;20685;-65
2021/08/25 10:05:15;;;;;;;4.40;4.00;;;;;;;22.94;85.53;97917.84;4969389;28;20241;-65
2021/08/25 10:07:42;;;;;;;7.23;4.73;;;;;;;22.95;85.78;97919.59;4955620;28;20207;-65
2021/08/25 10:10:09;;;;;;;4.50;4.10;;;;;;;22.94;85.58;97916.16;4951687;28;20254;-65
2021/08/25 10:12:35;;;;;;;5.33;4.40;;;;;;;22.95;85.44;97909.34;4968136;28;20302;-64
2021/08/25 10:15:02;;;;;;;4.67;4.27;;;;;;;22.95;85.49;97904.22;4970847;28;20235;-65
2021/08/25 10:17:40;;;;;;;4.40;4.00;;;;;;;22.90;85.44;97900.66;4955722;28;20588;-65
2021/08/25 10:20:33;;;;;;;4.47;4.07;;;;;;;22.94;85.53;97903.34;4969158;28;20207;-66
2021/08/25 10:23:01;;;;;;;4.50;4.10;;;;;;;21.94;85.49;97732.06;4961532;28;20314;-65
2021/08/25 10:25:28;;;;;;;4.73;3.93;;;;;;;22.95;85.88;97897.38;4968833;28;20302;-65
2021/08/25 10:28:05;;;;;;;4.47;4.07;;;;;;;22.95;85.59;97899.09;4969826;28;20322;-63
2021/08/25 10:30:52;;;;;;;4.53;4.13;;;;;;;22.96;85.61;97888.00;4970202;28;20321;-65
2021/08/25 10:33:20;;;;;;;4.10;3.80;;;;;;;22.95;85.67;97883.72;4964790;28;20273;-66
2021/08/25 10:35:47;;;;;;;4.40;4.00;;;;;;;22.96;85.59;97872.63;4969979;28;20323;-65
2021/08/25 10:38:29;;;;;;;4.87;4.37;;;;;;;22.96;85.66;97878.63;4969623;28;20595;-65
2021/08/25 10:41:03;;;;;;;4.20;3.80;;;;;;;22.95;85.57;97870.91;4968346;28;20294;-65
2021/08/25 10:43:34;;;;;;;4.20;3.80;;;;;;;22.95;85.60;97869.19;4969085;28;20321;-65
2021/08/25 10:46:01;;;;;;;4.33;3.93;;;;;;;22.91;85.71;97853.69;4969014;28;20310;-66
2021/08/25 10:48:42;;;;;;;4.30;3.90;;;;;;;22.96;85.54;97863.25;4968017;28;20764;-65
2021/08/25 10:51:33;;;;;;;5.10;4.60;;;;;;;22.95;85.51;97861.50;4969715;28;20641;-65
2021/08/25 10:54:02;;;;;;;4.37;3.97;;;;;;;22.74;85.47;97824.16;4968359;28;20217;-65
2021/08/25 10:56:31;;;;;;;5.53;4.30;;;;;;;22.95;85.64;97864.06;4969559;28;20682;-65
2021/08/25 10:59:02;;;;;;;4.50;4.10;;;;;;;22.96;85.61;97854.69;4969289;28;20675;-66
2021/08/25 11:01:31;;;;;;;5.37;4.27;;;;;;;22.96;85.72;97849.56;4968918;28;20238;-64
2021/08/25 11:04:15;;;;;;;4.33;3.93;;;;;;;22.96;85.71;97849.56;4968507;28;20278;-65
2021/08/25 11:06:41;;;;;;;4.40;3.87;;;;;;;22.96;85.59;97847.00;4967767;28;20223;-65
2021/08/25 11:09:09;;;;;;;3.93;3.63;;;;;;;22.95;85.72;97838.44;4962614;28;20678;-65
2021/08/25 11:11:36;;;;;;;4.20;3.90;;;;;;;22.97;85.78;97833.34;4968961;28;20239;-65
2021/08/25 11:14:03;;;;;;;4.00;3.60;;;;;;;22.96;85.65;97827.38;4968901;28;20717;-63
2021/08/25 11:16:29;;;;;;;4.27;3.87;;;;;;;22.96;85.66;97832.50;4969045;28;20213;-63
2021/08/25 11:18:56;;;;;;;4.27;3.87;;;;;;;22.96;85.59;97827.38;4969004;28;20206;-66
2021/08/25 11:21:22;;;;;;;5.03;4.03;;;;;;;22.97;85.90;97833.34;4969031;28;20643;-65
2021/08/25 11:23:55;;;;;;;4.00;3.60;;;;;;;22.97;85.65;97831.66;4968829;28;20769;-65
2021/08/25 11:26:22;;;;;;;4.30;3.90;;;;;;;22.96;85.58;97823.94;4968999;28;20234;-65
2021/08/25 11:28:49;;;;;;;4.07;3.67;;;;;;;22.95;85.59;97812.78;4968729;28;20290;-66
2021/08/25 11:31:25;;;;;;;5.33;3.70;;;;;;;22.94;85.69;97808.50;4969483;28;20208;-66
2021/08/25 11:33:55;;;;;;;4.10;3.70;;;;;;;22.94;85.79;97812.75;4968153;28;20294;-66
2021/08/25 11:36:21;;;;;;;4.20;3.80;;;;;;;22.94;85.79;97802.50;4967831;28;20689;-65
2021/08/25 11:38:48;;;;;;;4.27;3.87;;;;;;;22.94;85.83;97798.25;4968433;28;20718;-65